sensor_id;sensor_type;location;lat;lon;timestamp;temperature;humidity
70089;HTU21D;57460;47.134;19.888;2023-07-16T00:00:34;22.81;62.21
70089;HTU21D;57460;47.134;19.888;2023-07-16T00:03:00;22.80;61.33
70089;HTU21D;57460;47.134;19.888;2023-07-16T00:05:26;22.81;61.09
70089;HTU21D;57460;47.134;19.888;2023-07-16T00:07:52;22.84;60.90
70089;HTU21D;57460;47.134;19.888;2023-07-16T00:10:18;22.88;61.20
70089;HTU21D;57460;47.134;19.888;2023-07-16T00:12:44;22.86;61.35
70089;HTU21D;57460;47.134;19.888;2023-07-16T00:15:10;22.80;63.42
70089;HTU21D;57460;47.134;19.888;2023-07-16T00:17:36;22.76;62.55
70089;HTU21D;57460;47.134;19.888;2023-07-16T00:20:02;22.76;62.69
70089;HTU21D;57460;47.134;19.888;2023-07-16T00:22:28;22.70;64.03
70089;HTU21D;57460;47.134;19.888;2023-07-16T00:24:54;22.65;63.95
70089;HTU21D;57460;47.134;19.888;2023-07-16T00:27:19;22.62;62.64
70089;HTU21D;57460;47.134;19.888;2023-07-16T00:29:45;22.66;61.41
70089;HTU21D;57460;47.134;19.888;2023-07-16T00:32:11;22.68;61.18
70089;HTU21D;57460;47.134;19.888;2023-07-16T00:34:37;22.71;62.23
70089;HTU21D;57460;47.134;19.888;2023-07-16T00:37:02;22.72;61.88
70089;HTU21D;57460;47.134;19.888;2023-07-16T00:39:29;22.76;61.38
70089;HTU21D;57460;47.134;19.888;2023-07-16T00:41:55;22.80;59.93
70089;HTU21D;57460;47.134;19.888;2023-07-16T00:44:21;22.80;61.34
70089;HTU21D;57460;47.134;19.888;2023-07-16T00:46:48;22.79;61.09
70089;HTU21D;57460;47.134;19.888;2023-07-16T00:49:14;22.79;59.95
70089;HTU21D;57460;47.134;19.888;2023-07-16T00:51:40;22.77;60.41
70089;HTU21D;57460;47.134;19.888;2023-07-16T00:54:07;22.67;62.82
70089;HTU21D;57460;47.134;19.888;2023-07-16T00:56:33;22.52;62.75
70089;HTU21D;57460;47.134;19.888;2023-07-16T00:58:59;22.43;63.14
70089;HTU21D;57460;47.134;19.888;2023-07-16T01:01:25;22.38;65.52
70089;HTU21D;57460;47.134;19.888;2023-07-16T01:03:51;22.32;63.73
70089;HTU21D;57460;47.134;19.888;2023-07-16T01:06:39;22.25;63.69
70089;HTU21D;57460;47.134;19.888;2023-07-16T01:09:15;22.22;65.59
70089;HTU21D;57460;47.134;19.888;2023-07-16T01:11:45;22.24;63.40
70089;HTU21D;57460;47.134;19.888;2023-07-16T01:14:14;22.34;61.99
70089;HTU21D;57460;47.134;19.888;2023-07-16T01:16:41;22.42;62.50
70089;HTU21D;57460;47.134;19.888;2023-07-16T01:19:08;22.49;62.25
70089;HTU21D;57460;47.134;19.888;2023-07-16T01:24:46;22.61;61.46
70089;HTU21D;57460;47.134;19.888;2023-07-16T01:29:37;22.65;60.96
70089;HTU21D;57460;47.134;19.888;2023-07-16T01:32:05;22.65;62.44
70089;HTU21D;57460;47.134;19.888;2023-07-16T01:34:34;22.67;61.12
70089;HTU21D;57460;47.134;19.888;2023-07-16T01:37:02;22.68;61.15
70089;HTU21D;57460;47.134;19.888;2023-07-16T01:39:30;22.66;61.54
70089;HTU21D;57460;47.134;19.888;2023-07-16T01:41:56;22.66;61.05
70089;HTU21D;57460;47.134;19.888;2023-07-16T01:44:22;22.68;61.24
70089;HTU21D;57460;47.134;19.888;2023-07-16T01:47:04;22.63;60.87
70089;HTU21D;57460;47.134;19.888;2023-07-16T01:49:31;22.57;61.41
70089;HTU21D;57460;47.134;19.888;2023-07-16T01:51:56;22.53;61.58
70089;HTU21D;57460;47.134;19.888;2023-07-16T01:54:22;22.51;61.33
70089;HTU21D;57460;47.134;19.888;2023-07-16T01:56:48;22.47;61.50
70089;HTU21D;57460;47.134;19.888;2023-07-16T01:59:14;22.42;62.50
70089;HTU21D;57460;47.134;19.888;2023-07-16T02:01:39;22.37;62.58
70089;HTU21D;57460;47.134;19.888;2023-07-16T02:04:05;22.34;61.50
70089;HTU21D;57460;47.134;19.888;2023-07-16T02:06:31;22.34;62.15
70089;HTU21D;57460;47.134;19.888;2023-07-16T02:08:56;22.28;64.43
70089;HTU21D;57460;47.134;19.888;2023-07-16T02:11:22;22.24;64.11
70089;HTU21D;57460;47.134;19.888;2023-07-16T02:13:48;22.14;65.92
70089;HTU21D;57460;47.134;19.888;2023-07-16T02:16:14;22.07;65.17
70089;HTU21D;57460;47.134;19.888;2023-07-16T02:18:40;22.03;64.07
70089;HTU21D;57460;47.134;19.888;2023-07-16T02:21:06;22.02;63.27
70089;HTU21D;57460;47.134;19.888;2023-07-16T02:23:34;22.06;64.16
70089;HTU21D;57460;47.134;19.888;2023-07-16T02:26:00;22.05;63.32
70089;HTU21D;57460;47.134;19.888;2023-07-16T02:28:29;22.01;63.18
70089;HTU21D;57460;47.134;19.888;2023-07-16T02:31:00;21.98;62.77
70089;HTU21D;57460;47.134;19.888;2023-07-16T02:33:26;21.97;62.70
70089;HTU21D;57460;47.134;19.888;2023-07-16T02:35:52;21.95;62.19
70089;HTU21D;57460;47.134;19.888;2023-07-16T02:38:17;21.90;63.90
70089;HTU21D;57460;47.134;19.888;2023-07-16T02:40:44;21.84;63.53
70089;HTU21D;57460;47.134;19.888;2023-07-16T02:43:10;21.77;64.14
70089;HTU21D;57460;47.134;19.888;2023-07-16T02:45:36;21.69;63.69
70089;HTU21D;57460;47.134;19.888;2023-07-16T02:48:02;21.67;64.36
70089;HTU21D;57460;47.134;19.888;2023-07-16T02:50:28;21.67;63.32
70089;HTU21D;57460;47.134;19.888;2023-07-16T02:52:54;21.62;65.82
70089;HTU21D;57460;47.134;19.888;2023-07-16T02:55:20;21.54;64.49
70089;HTU21D;57460;47.134;19.888;2023-07-16T02:57:45;21.50;64.38
70089;HTU21D;57460;47.134;19.888;2023-07-16T03:00:11;21.49;63.81
70089;HTU21D;57460;47.134;19.888;2023-07-16T03:02:37;21.44;66.21
70089;HTU21D;57460;47.134;19.888;2023-07-16T03:05:03;21.35;64.85
70089;HTU21D;57460;47.134;19.888;2023-07-16T03:07:29;21.25;64.47
70089;HTU21D;57460;47.134;19.888;2023-07-16T03:09:55;21.22;65.59
70089;HTU21D;57460;47.134;19.888;2023-07-16T03:12:21;21.25;67.16
70089;HTU21D;57460;47.134;19.888;2023-07-16T03:14:47;21.20;66.49
70089;HTU21D;57460;47.134;19.888;2023-07-16T03:17:13;21.24;63.38
70089;HTU21D;57460;47.134;19.888;2023-07-16T03:19:38;21.20;65.66
70089;HTU21D;57460;47.134;19.888;2023-07-16T03:22:04;21.18;67.81
70089;HTU21D;57460;47.134;19.888;2023-07-16T03:24:30;21.18;65.37
70089;HTU21D;57460;47.134;19.888;2023-07-16T03:26:57;21.19;65.19
70089;HTU21D;57460;47.134;19.888;2023-07-16T03:29:23;21.15;65.04
70089;HTU21D;57460;47.134;19.888;2023-07-16T03:31:49;21.10;67.27
70089;HTU21D;57460;47.134;19.888;2023-07-16T03:34:14;21.06;63.92
70089;HTU21D;57460;47.134;19.888;2023-07-16T03:36:40;21.06;67.36
70089;HTU21D;57460;47.134;19.888;2023-07-16T03:39:06;21.06;66.32
70089;HTU21D;57460;47.134;19.888;2023-07-16T03:41:34;21.03;67.28
70089;HTU21D;57460;47.134;19.888;2023-07-16T03:44:00;21.05;66.24
70089;HTU21D;57460;47.134;19.888;2023-07-16T03:46:25;21.09;65.98
70089;HTU21D;57460;47.134;19.888;2023-07-16T03:48:53;21.15;65.65
70089;HTU21D;57460;47.134;19.888;2023-07-16T03:51:19;21.20;65.78
70089;HTU21D;57460;47.134;19.888;2023-07-16T03:53:44;21.25;65.40
70089;HTU21D;57460;47.134;19.888;2023-07-16T03:56:10;21.29;65.07
70089;HTU21D;57460;47.134;19.888;2023-07-16T03:58:36;21.31;65.40
70089;HTU21D;57460;47.134;19.888;2023-07-16T04:01:02;21.35;63.89
70089;HTU21D;57460;47.134;19.888;2023-07-16T04:03:28;21.37;64.84
70089;HTU21D;57460;47.134;19.888;2023-07-16T04:06:04;21.42;65.18
70089;HTU21D;57460;47.134;19.888;2023-07-16T04:08:30;21.44;68.43
70089;HTU21D;57460;47.134;19.888;2023-07-16T04:10:56;21.44;67.17
70089;HTU21D;57460;47.134;19.888;2023-07-16T04:13:22;21.42;67.60
70089;HTU21D;57460;47.134;19.888;2023-07-16T04:15:48;21.43;69.32
70089;HTU21D;57460;47.134;19.888;2023-07-16T04:18:14;21.45;68.78
70089;HTU21D;57460;47.134;19.888;2023-07-16T04:20:39;21.50;67.62
70089;HTU21D;57460;47.134;19.888;2023-07-16T04:23:05;21.54;70.27
70089;HTU21D;57460;47.134;19.888;2023-07-16T04:25:34;21.62;65.64
70089;HTU21D;57460;47.134;19.888;2023-07-16T04:28:00;21.69;69.12
70089;HTU21D;57460;47.134;19.888;2023-07-16T04:30:25;21.77;68.07
70089;HTU21D;57460;47.134;19.888;2023-07-16T04:32:51;21.83;69.39
70089;HTU21D;57460;47.134;19.888;2023-07-16T04:35:17;21.92;68.30
70089;HTU21D;57460;47.134;19.888;2023-07-16T04:37:43;22.05;64.11
70089;HTU21D;57460;47.134;19.888;2023-07-16T04:40:09;22.09;70.51
70089;HTU21D;57460;47.134;19.888;2023-07-16T04:42:35;22.11;70.26
70089;HTU21D;57460;47.134;19.888;2023-07-16T04:45:01;22.18;70.32
70089;HTU21D;57460;47.134;19.888;2023-07-16T04:47:29;22.27;69.39
70089;HTU21D;57460;47.134;19.888;2023-07-16T04:49:55;22.38;70.07
70089;HTU21D;57460;47.134;19.888;2023-07-16T04:52:21;22.52;68.78
70089;HTU21D;57460;47.134;19.888;2023-07-16T04:55:22;22.76;63.95
70089;HTU21D;57460;47.134;19.888;2023-07-16T04:57:48;22.84;64.99
70089;HTU21D;57460;47.134;19.888;2023-07-16T05:00:13;22.97;63.98
70089;HTU21D;57460;47.134;19.888;2023-07-16T05:02:39;23.03;64.72
70089;HTU21D;57460;47.134;19.888;2023-07-16T05:05:05;23.12;68.04
70089;HTU21D;57460;47.134;19.888;2023-07-16T05:07:31;23.23;68.79
70089;HTU21D;57460;47.134;19.888;2023-07-16T05:09:57;23.34;69.57
70089;HTU21D;57460;47.134;19.888;2023-07-16T05:12:23;23.45;68.62
70089;HTU21D;57460;47.134;19.888;2023-07-16T05:14:49;23.59;67.84
70089;HTU21D;57460;47.134;19.888;2023-07-16T05:17:15;23.77;64.24
70089;HTU21D;57460;47.134;19.888;2023-07-16T05:19:40;23.92;64.63
70089;HTU21D;57460;47.134;19.888;2023-07-16T05:22:06;24.06;67.01
70089;HTU21D;57460;47.134;19.888;2023-07-16T05:24:32;24.20;67.42
70089;HTU21D;57460;47.134;19.888;2023-07-16T05:26:59;24.33;67.47
70089;HTU21D;57460;47.134;19.888;2023-07-16T05:29:24;24.48;66.76
70089;HTU21D;57460;47.134;19.888;2023-07-16T05:31:50;24.68;64.62
70089;HTU21D;57460;47.134;19.888;2023-07-16T05:34:16;24.86;65.82
70089;HTU21D;57460;47.134;19.888;2023-07-16T05:36:42;25.07;65.02
70089;HTU21D;57460;47.134;19.888;2023-07-16T05:39:37;25.31;63.20
70089;HTU21D;57460;47.134;19.888;2023-07-16T05:42:32;25.54;63.40
70089;HTU21D;57460;47.134;19.888;2023-07-16T05:44:57;25.80;62.34
70089;HTU21D;57460;47.134;19.888;2023-07-16T05:47:23;26.04;60.26
70089;HTU21D;57460;47.134;19.888;2023-07-16T05:50:09;26.31;58.48
70089;HTU21D;57460;47.134;19.888;2023-07-16T05:52:35;26.53;58.56
70089;HTU21D;57460;47.134;19.888;2023-07-16T05:55:01;26.75;57.80
70089;HTU21D;57460;47.134;19.888;2023-07-16T05:57:27;26.96;57.03
70089;HTU21D;57460;47.134;19.888;2023-07-16T05:59:53;27.17;56.65
70089;HTU21D;57460;47.134;19.888;2023-07-16T06:02:18;27.37;56.90
70089;HTU21D;57460;47.134;19.888;2023-07-16T06:04:44;27.56;56.99
70089;HTU21D;57460;47.134;19.888;2023-07-16T06:07:10;27.76;56.20
70089;HTU21D;57460;47.134;19.888;2023-07-16T06:09:36;27.97;54.60
70089;HTU21D;57460;47.134;19.888;2023-07-16T06:12:02;28.15;54.74
70089;HTU21D;57460;47.134;19.888;2023-07-16T06:14:27;28.31;53.09
70089;HTU21D;57460;47.134;19.888;2023-07-16T06:16:53;28.49;53.44
70089;HTU21D;57460;47.134;19.888;2023-07-16T06:19:19;28.67;52.76
70089;HTU21D;57460;47.134;19.888;2023-07-16T06:21:45;28.83;52.23
70089;HTU21D;57460;47.134;19.888;2023-07-16T06:24:13;28.98;52.17
70089;HTU21D;57460;47.134;19.888;2023-07-16T06:26:39;29.11;51.33
70089;HTU21D;57460;47.134;19.888;2023-07-16T06:29:04;29.27;53.75
70089;HTU21D;57460;47.134;19.888;2023-07-16T06:31:30;29.44;51.37
70089;HTU21D;57460;47.134;19.888;2023-07-16T06:33:56;29.57;52.00
70089;HTU21D;57460;47.134;19.888;2023-07-16T06:36:22;29.62;50.94
70089;HTU21D;57460;47.134;19.888;2023-07-16T06:38:48;29.63;50.68
70089;HTU21D;57460;47.134;19.888;2023-07-16T06:41:14;29.67;51.80
70089;HTU21D;57460;47.134;19.888;2023-07-16T06:43:39;29.74;49.17
70089;HTU21D;57460;47.134;19.888;2023-07-16T06:46:05;29.87;50.70
70089;HTU21D;57460;47.134;19.888;2023-07-16T06:48:31;30.09;51.46
70089;HTU21D;57460;47.134;19.888;2023-07-16T06:50:57;30.33;49.33
70089;HTU21D;57460;47.134;19.888;2023-07-16T06:53:26;30.49;47.68
70089;HTU21D;57460;47.134;19.888;2023-07-16T06:55:51;30.66;48.55
70089;HTU21D;57460;47.134;19.888;2023-07-16T06:58:17;30.83;46.87
70089;HTU21D;57460;47.134;19.888;2023-07-16T07:00:43;31.04;49.11
70089;HTU21D;57460;47.134;19.888;2023-07-16T07:03:09;31.22;46.32
70089;HTU21D;57460;47.134;19.888;2023-07-16T07:05:35;31.40;47.43
70089;HTU21D;57460;47.134;19.888;2023-07-16T07:08:04;31.55;47.34
70089;HTU21D;57460;47.134;19.888;2023-07-16T07:10:30;31.70;47.76
70089;HTU21D;57460;47.134;19.888;2023-07-16T07:12:56;31.89;46.40
70089;HTU21D;57460;47.134;19.888;2023-07-16T07:15:22;32.12;45.82
70089;HTU21D;57460;47.134;19.888;2023-07-16T07:17:47;32.33;44.45
70089;HTU21D;57460;47.134;19.888;2023-07-16T07:20:17;32.53;45.22
70089;HTU21D;57460;47.134;19.888;2023-07-16T07:22:43;32.72;45.04
70089;HTU21D;57460;47.134;19.888;2023-07-16T07:25:09;32.89;44.88
70089;HTU21D;57460;47.134;19.888;2023-07-16T07:27:34;33.04;42.47
70089;HTU21D;57460;47.134;19.888;2023-07-16T07:30:00;33.13;41.78
70089;HTU21D;57460;47.134;19.888;2023-07-16T07:32:29;33.23;43.67
70089;HTU21D;57460;47.134;19.888;2023-07-16T07:34:55;33.27;42.46
70089;HTU21D;57460;47.134;19.888;2023-07-16T07:37:21;33.34;41.11
70089;HTU21D;57460;47.134;19.888;2023-07-16T07:39:52;33.43;41.24
70089;HTU21D;57460;47.134;19.888;2023-07-16T07:42:18;33.58;42.45
70089;HTU21D;57460;47.134;19.888;2023-07-16T07:44:44;33.74;42.78
70089;HTU21D;57460;47.134;19.888;2023-07-16T07:47:10;33.90;41.84
70089;HTU21D;57460;47.134;19.888;2023-07-16T07:49:35;34.01;42.13
70089;HTU21D;57460;47.134;19.888;2023-07-16T07:52:01;34.17;40.86
70089;HTU21D;57460;47.134;19.888;2023-07-16T07:54:27;34.36;39.62
70089;HTU21D;57460;47.134;19.888;2023-07-16T07:56:53;34.47;39.59
70089;HTU21D;57460;47.134;19.888;2023-07-16T07:59:25;34.59;42.36
70089;HTU21D;57460;47.134;19.888;2023-07-16T08:01:50;34.70;40.76
70089;HTU21D;57460;47.134;19.888;2023-07-16T08:04:16;34.90;40.73
70089;HTU21D;57460;47.134;19.888;2023-07-16T08:06:42;35.04;40.64
70089;HTU21D;57460;47.134;19.888;2023-07-16T08:09:08;35.14;39.38
70089;HTU21D;57460;47.134;19.888;2023-07-16T08:11:34;35.23;39.34
70089;HTU21D;57460;47.134;19.888;2023-07-16T08:14:00;35.38;38.48
70089;HTU21D;57460;47.134;19.888;2023-07-16T08:16:26;35.47;40.08
70089;HTU21D;57460;47.134;19.888;2023-07-16T08:18:51;35.40;38.17
70089;HTU21D;57460;47.134;19.888;2023-07-16T08:21:17;35.43;37.56
70089;HTU21D;57460;47.134;19.888;2023-07-16T08:23:52;35.48;34.48
70089;HTU21D;57460;47.134;19.888;2023-07-16T08:26:18;35.64;35.70
70089;HTU21D;57460;47.134;19.888;2023-07-16T08:28:44;35.75;37.36
70089;HTU21D;57460;47.134;19.888;2023-07-16T08:31:11;35.89;35.56
70089;HTU21D;57460;47.134;19.888;2023-07-16T08:33:39;35.96;34.57
70089;HTU21D;57460;47.134;19.888;2023-07-16T08:36:05;36.01;35.60
70089;HTU21D;57460;47.134;19.888;2023-07-16T08:38:30;36.12;36.26
70089;HTU21D;57460;47.134;19.888;2023-07-16T08:41:02;36.14;35.09
70089;HTU21D;57460;47.134;19.888;2023-07-16T08:43:29;36.30;35.17
70089;HTU21D;57460;47.134;19.888;2023-07-16T08:45:55;36.30;34.41
70089;HTU21D;57460;47.134;19.888;2023-07-16T08:48:22;36.25;36.11
70089;HTU21D;57460;47.134;19.888;2023-07-16T08:50:49;36.29;33.65
70089;HTU21D;57460;47.134;19.888;2023-07-16T08:53:16;36.29;35.02
70089;HTU21D;57460;47.134;19.888;2023-07-16T08:55:44;36.34;32.74
70089;HTU21D;57460;47.134;19.888;2023-07-16T08:58:14;36.46;35.57
70089;HTU21D;57460;47.134;19.888;2023-07-16T09:00:44;36.60;33.47
70089;HTU21D;57460;47.134;19.888;2023-07-16T09:03:14;36.76;34.57
70089;HTU21D;57460;47.134;19.888;2023-07-16T09:05:43;36.78;31.19
70089;HTU21D;57460;47.134;19.888;2023-07-16T09:08:10;36.75;31.96
70089;HTU21D;57460;47.134;19.888;2023-07-16T09:10:37;36.87;33.54
70089;HTU21D;57460;47.134;19.888;2023-07-16T09:13:03;37.01;33.97
70089;HTU21D;57460;47.134;19.888;2023-07-16T09:15:30;37.07;32.44
70089;HTU21D;57460;47.134;19.888;2023-07-16T09:17:56;37.14;31.86
70089;HTU21D;57460;47.134;19.888;2023-07-16T09:20:22;37.15;33.48
70089;HTU21D;57460;47.134;19.888;2023-07-16T09:22:54;37.11;33.49
70089;HTU21D;57460;47.134;19.888;2023-07-16T09:25:31;37.32;35.05
70089;HTU21D;57460;47.134;19.888;2023-07-16T09:28:02;37.25;33.80
70089;HTU21D;57460;47.134;19.888;2023-07-16T09:30:33;37.26;33.63
70089;HTU21D;57460;47.134;19.888;2023-07-16T09:33:16;37.37;34.00
70089;HTU21D;57460;47.134;19.888;2023-07-16T09:35:44;37.50;33.35
70089;HTU21D;57460;47.134;19.888;2023-07-16T09:38:10;37.65;33.74
70089;HTU21D;57460;47.134;19.888;2023-07-16T09:40:38;37.82;30.45
70089;HTU21D;57460;47.134;19.888;2023-07-16T09:43:04;37.84;31.36
70089;HTU21D;57460;47.134;19.888;2023-07-16T09:45:31;37.86;34.05
70089;HTU21D;57460;47.134;19.888;2023-07-16T09:47:57;37.93;34.00
70089;HTU21D;57460;47.134;19.888;2023-07-16T09:50:29;37.97;31.55
70089;HTU21D;57460;47.134;19.888;2023-07-16T09:52:58;38.04;32.94
70089;HTU21D;57460;47.134;19.888;2023-07-16T09:55:24;38.19;33.32
70089;HTU21D;57460;47.134;19.888;2023-07-16T09:57:56;38.37;29.45
70089;HTU21D;57460;47.134;19.888;2023-07-16T10:00:24;38.64;32.70
70089;HTU21D;57460;47.134;19.888;2023-07-16T10:02:51;38.62;31.59
70089;HTU21D;57460;47.134;19.888;2023-07-16T10:05:19;38.47;32.09
70089;HTU21D;57460;47.134;19.888;2023-07-16T10:07:57;38.45;31.38
70089;HTU21D;57460;47.134;19.888;2023-07-16T10:13:14;38.36;31.38
70089;HTU21D;57460;47.134;19.888;2023-07-16T10:15:57;38.26;31.12
70089;HTU21D;57460;47.134;19.888;2023-07-16T10:18:31;38.10;31.86
70089;HTU21D;57460;47.134;19.888;2023-07-16T10:21:04;38.04;32.01
70089;HTU21D;57460;47.134;19.888;2023-07-16T10:23:39;37.99;32.94
70089;HTU21D;57460;47.134;19.888;2023-07-16T10:26:07;38.20;32.81
70089;HTU21D;57460;47.134;19.888;2023-07-16T10:28:33;38.55;31.31
70089;HTU21D;57460;47.134;19.888;2023-07-16T10:31:03;38.77;29.47
70089;HTU21D;57460;47.134;19.888;2023-07-16T10:33:29;38.88;29.31
70089;HTU21D;57460;47.134;19.888;2023-07-16T10:35:57;38.90;31.42
70089;HTU21D;57460;47.134;19.888;2023-07-16T10:38:26;38.81;30.19
70089;HTU21D;57460;47.134;19.888;2023-07-16T10:40:52;38.68;30.57
70089;HTU21D;57460;47.134;19.888;2023-07-16T10:43:18;38.62;29.76
70089;HTU21D;57460;47.134;19.888;2023-07-16T10:45:44;38.48;30.58
70089;HTU21D;57460;47.134;19.888;2023-07-16T10:48:12;38.32;31.64
70089;HTU21D;57460;47.134;19.888;2023-07-16T10:50:42;38.29;31.95
70089;HTU21D;57460;47.134;19.888;2023-07-16T10:53:07;38.34;31.44
70089;HTU21D;57460;47.134;19.888;2023-07-16T10:55:33;38.44;31.17
70089;HTU21D;57460;47.134;19.888;2023-07-16T11:01:33;38.75;31.77
70089;HTU21D;57460;47.134;19.888;2023-07-16T11:04:02;38.91;30.45
70089;HTU21D;57460;47.134;19.888;2023-07-16T11:06:33;39.10;29.10
70089;HTU21D;57460;47.134;19.888;2023-07-16T11:09:11;39.19;30.90
70089;HTU21D;57460;47.134;19.888;2023-07-16T11:11:37;39.07;30.75
70089;HTU21D;57460;47.134;19.888;2023-07-16T11:14:07;38.80;29.59
70089;HTU21D;57460;47.134;19.888;2023-07-16T11:16:36;38.54;31.11
70089;HTU21D;57460;47.134;19.888;2023-07-16T11:19:05;38.32;30.90
70089;HTU21D;57460;47.134;19.888;2023-07-16T11:21:34;38.10;31.34
70089;HTU21D;57460;47.134;19.888;2023-07-16T11:24:10;37.91;31.22
70089;HTU21D;57460;47.134;19.888;2023-07-16T11:26:37;37.74;32.09
70089;HTU21D;57460;47.134;19.888;2023-07-16T11:29:12;37.56;33.37
70089;HTU21D;57460;47.134;19.888;2023-07-16T11:31:40;37.45;32.55
70089;HTU21D;57460;47.134;19.888;2023-07-16T11:34:07;37.35;33.62
70089;HTU21D;57460;47.134;19.888;2023-07-16T11:36:33;37.29;31.96
70089;HTU21D;57460;47.134;19.888;2023-07-16T11:39:02;37.25;34.05
70089;HTU21D;57460;47.134;19.888;2023-07-16T11:41:28;37.30;34.04
70089;HTU21D;57460;47.134;19.888;2023-07-16T11:44:02;37.25;32.96
70089;HTU21D;57460;47.134;19.888;2023-07-16T11:46:32;37.18;33.54
70089;HTU21D;57460;47.134;19.888;2023-07-16T11:49:02;37.17;34.50
70089;HTU21D;57460;47.134;19.888;2023-07-16T11:51:29;37.00;33.25
70089;HTU21D;57460;47.134;19.888;2023-07-16T11:53:56;37.01;33.16
70089;HTU21D;57460;47.134;19.888;2023-07-16T11:56:23;37.08;31.70
70089;HTU21D;57460;47.134;19.888;2023-07-16T11:58:49;37.21;32.99
70089;HTU21D;57460;47.134;19.888;2023-07-16T12:01:15;37.31;32.77
70089;HTU21D;57460;47.134;19.888;2023-07-16T12:03:41;37.35;33.83
70089;HTU21D;57460;47.134;19.888;2023-07-16T12:06:08;37.35;33.10
70089;HTU21D;57460;47.134;19.888;2023-07-16T12:08:34;37.37;33.42
70089;HTU21D;57460;47.134;19.888;2023-07-16T12:11:00;37.23;33.82
70089;HTU21D;57460;47.134;19.888;2023-07-16T12:13:25;37.15;34.18
70089;HTU21D;57460;47.134;19.888;2023-07-16T12:15:51;37.19;34.02
70089;HTU21D;57460;47.134;19.888;2023-07-16T12:18:17;37.35;31.96
70089;HTU21D;57460;47.134;19.888;2023-07-16T12:20:43;37.57;32.97
70089;HTU21D;57460;47.134;19.888;2023-07-16T12:23:09;37.89;30.08
70089;HTU21D;57460;47.134;19.888;2023-07-16T12:25:34;38.15;32.96
70089;HTU21D;57460;47.134;19.888;2023-07-16T12:28:01;38.48;31.17
70089;HTU21D;57460;47.134;19.888;2023-07-16T12:30:27;38.68;30.71
70089;HTU21D;57460;47.134;19.888;2023-07-16T12:32:53;38.94;30.80
70089;HTU21D;57460;47.134;19.888;2023-07-16T12:35:19;39.09;28.95
70089;HTU21D;57460;47.134;19.888;2023-07-16T12:37:45;39.12;27.65
70089;HTU21D;57460;47.134;19.888;2023-07-16T12:40:11;39.09;29.10
70089;HTU21D;57460;47.134;19.888;2023-07-16T12:42:37;39.10;29.84
70089;HTU21D;57460;47.134;19.888;2023-07-16T12:45:03;39.19;29.06
70089;HTU21D;57460;47.134;19.888;2023-07-16T12:47:29;39.25;30.01
70089;HTU21D;57460;47.134;19.888;2023-07-16T12:49:55;39.30;29.75
70089;HTU21D;57460;47.134;19.888;2023-07-16T12:52:20;39.19;28.88
70089;HTU21D;57460;47.134;19.888;2023-07-16T12:54:46;38.99;29.76
70089;HTU21D;57460;47.134;19.888;2023-07-16T12:57:12;38.98;30.87
70089;HTU21D;57460;47.134;19.888;2023-07-16T12:59:38;39.13;30.83
70089;HTU21D;57460;47.134;19.888;2023-07-16T13:02:04;39.33;29.06
70089;HTU21D;57460;47.134;19.888;2023-07-16T13:04:30;39.45;28.63
70089;HTU21D;57460;47.134;19.888;2023-07-16T13:06:56;39.44;29.18
70089;HTU21D;57460;47.134;19.888;2023-07-16T13:09:22;39.32;29.50
70089;HTU21D;57460;47.134;19.888;2023-07-16T13:11:48;39.15;28.88
70089;HTU21D;57460;47.134;19.888;2023-07-16T13:14:14;39.08;30.68
70089;HTU21D;57460;47.134;19.888;2023-07-16T13:16:40;38.96;31.22
70089;HTU21D;57460;47.134;19.888;2023-07-16T13:19:06;38.93;30.86
70089;HTU21D;57460;47.134;19.888;2023-07-16T13:21:32;38.97;30.83
70089;HTU21D;57460;47.134;19.888;2023-07-16T13:23:58;38.83;30.32
70089;HTU21D;57460;47.134;19.888;2023-07-16T13:26:25;38.70;29.85
70089;HTU21D;57460;47.134;19.888;2023-07-16T13:28:51;38.41;30.06
70089;HTU21D;57460;47.134;19.888;2023-07-16T13:31:18;38.18;30.25
70089;HTU21D;57460;47.134;19.888;2023-07-16T13:33:44;38.10;30.74
70089;HTU21D;57460;47.134;19.888;2023-07-16T13:36:10;38.11;31.78
70089;HTU21D;57460;47.134;19.888;2023-07-16T13:38:36;37.94;31.45
70089;HTU21D;57460;47.134;19.888;2023-07-16T13:41:03;37.91;31.25
70089;HTU21D;57460;47.134;19.888;2023-07-16T13:43:29;37.87;29.57
70089;HTU21D;57460;47.134;19.888;2023-07-16T13:45:55;37.80;31.86
70089;HTU21D;57460;47.134;19.888;2023-07-16T13:48:21;37.81;31.21
70089;HTU21D;57460;47.134;19.888;2023-07-16T13:50:47;37.99;28.12
70089;HTU21D;57460;47.134;19.888;2023-07-16T13:53:16;38.03;30.70
70089;HTU21D;57460;47.134;19.888;2023-07-16T13:55:42;38.23;29.57
70089;HTU21D;57460;47.134;19.888;2023-07-16T13:58:09;38.26;30.16
70089;HTU21D;57460;47.134;19.888;2023-07-16T14:00:36;38.19;31.03
70089;HTU21D;57460;47.134;19.888;2023-07-16T14:03:02;38.10;30.49
70089;HTU21D;57460;47.134;19.888;2023-07-16T14:05:28;38.00;30.69
70089;HTU21D;57460;47.134;19.888;2023-07-16T14:07:54;37.96;31.74
70089;HTU21D;57460;47.134;19.888;2023-07-16T14:10:21;37.89;31.54
70089;HTU21D;57460;47.134;19.888;2023-07-16T14:12:47;37.88;32.35
70089;HTU21D;57460;47.134;19.888;2023-07-16T14:15:12;37.88;32.37
70089;HTU21D;57460;47.134;19.888;2023-07-16T14:17:39;38.02;31.83
70089;HTU21D;57460;47.134;19.888;2023-07-16T14:20:06;38.17;31.85
70089;HTU21D;57460;47.134;19.888;2023-07-16T14:22:32;38.29;31.99
70089;HTU21D;57460;47.134;19.888;2023-07-16T14:24:58;38.31;31.39
70089;HTU21D;57460;47.134;19.888;2023-07-16T14:27:24;38.29;31.28
70089;HTU21D;57460;47.134;19.888;2023-07-16T14:29:50;38.21;30.06
70089;HTU21D;57460;47.134;19.888;2023-07-16T14:32:17;38.21;32.30
70089;HTU21D;57460;47.134;19.888;2023-07-16T14:34:43;38.17;31.03
70089;HTU21D;57460;47.134;19.888;2023-07-16T14:37:09;38.07;31.50
70089;HTU21D;57460;47.134;19.888;2023-07-16T14:39:35;38.04;32.32
70089;HTU21D;57460;47.134;19.888;2023-07-16T14:42:01;38.05;32.22
70089;HTU21D;57460;47.134;19.888;2023-07-16T14:44:30;38.09;32.20
70089;HTU21D;57460;47.134;19.888;2023-07-16T14:46:56;38.05;31.75
70089;HTU21D;57460;47.134;19.888;2023-07-16T14:49:22;37.97;32.21
70089;HTU21D;57460;47.134;19.888;2023-07-16T14:51:48;37.84;33.81
70089;HTU21D;57460;47.134;19.888;2023-07-16T14:54:14;37.72;33.59
70089;HTU21D;57460;47.134;19.888;2023-07-16T14:56:40;37.60;33.34
70089;HTU21D;57460;47.134;19.888;2023-07-16T14:59:06;37.47;33.52
70089;HTU21D;57460;47.134;19.888;2023-07-16T15:01:32;37.40;34.25
70089;HTU21D;57460;47.134;19.888;2023-07-16T15:03:58;37.32;33.40
70089;HTU21D;57460;47.134;19.888;2023-07-16T15:06:24;37.29;33.81
70089;HTU21D;57460;47.134;19.888;2023-07-16T15:08:51;37.27;33.84
70089;HTU21D;57460;47.134;19.888;2023-07-16T15:11:17;37.16;33.67
70089;HTU21D;57460;47.134;19.888;2023-07-16T15:13:44;37.05;33.85